Time;durP1;ratioP1;P1;durP2;ratioP2;P2;SDS_P1;SDS_P2;PMS_P1;PMS_P2;Temp;Humidity;BMP_temperature;BMP_pressure;BME280_temperature;BME280_humidity;BME280_pressure;Samples;Min_cycle;Max_cycle;Signal;HPM_P1;HPM_P2
2023/04/06 00:01:08;;;;;;;4.97;4.20;;;;;;;-1.25;78.09;99695.88;4966674;29;20272;-81
2023/04/06 00:03:34;;;;;;;5.20;4.30;;;;;;;-1.28;77.80;99686.50;4941952;29;20260;-82
2023/04/06 00:06:01;;;;;;;5.93;4.00;;;;;;;-1.30;78.27;99692.84;4947612;29;20208;-82
2023/04/06 00:08:28;;;;;;;6.43;4.23;;;;;;;-1.21;77.87;99694.66;4945629;29;20213;-81
2023/04/06 00:10:55;;;;;;;6.13;3.83;;;;;;;-1.25;77.98;99688.00;4942744;29;20261;-80
2023/04/06 00:13:21;;;;;;;4.70;3.87;;;;;;;-1.26;78.12;99692.41;4941566;29;20204;-81
2023/04/06 00:15:48;;;;;;;5.10;4.17;;;;;;;-1.29;78.50;99691.88;4943463;29;20277;-81
2023/04/06 00:18:15;;;;;;;5.13;4.00;;;;;;;-1.33;79.01;99692.19;4941658;29;20202;-81
2023/04/06 00:20:42;;;;;;;5.57;4.10;;;;;;;-1.37;79.55;99687.34;4940298;29;20197;-80
2023/04/06 00:23:08;;;;;;;5.00;4.30;;;;;;;-1.43;79.93;99687.91;4923279;29;20200;-80
2023/04/06 00:25:35;;;;;;;5.87;4.30;;;;;;;-1.35;80.21;99678.31;4941214;29;20325;-81
2023/04/06 00:28:03;;;;;;;6.67;4.53;;;;;;;-1.45;80.34;99685.44;4941530;29;20194;-81
2023/04/06 00:30:29;;;;;;;5.17;4.10;;;;;;;-1.46;80.79;99685.56;4941133;29;20198;-81
2023/04/06 00:32:56;;;;;;;5.90;4.20;;;;;;;-1.42;81.13;99681.69;4939920;29;20687;-81
2023/04/06 00:35:23;;;;;;;6.70;4.37;;;;;;;-1.52;81.63;99675.63;4923714;29;20202;-81
2023/04/06 00:37:50;;;;;;;4.13;3.73;;;;;;;-1.58;82.28;99671.75;4939765;29;20197;-81
2023/04/06 00:40:16;;;;;;;5.47;4.10;;;;;;;-1.58;81.72;99665.66;4939272;29;20217;-81
2023/04/06 00:42:44;;;;;;;5.70;4.40;;;;;;;-1.59;81.98;99667.50;4923442;29;20212;-81
2023/04/06 00:45:11;;;;;;;6.00;3.90;;;;;;;-1.62;81.78;99669.53;4923930;29;20213;-81
2023/04/06 00:47:38;;;;;;;4.97;4.20;;;;;;;-1.65;81.70;99665.41;4924502;29;20193;-80
2023/04/06 00:50:05;;;;;;;5.80;4.00;;;;;;;-1.65;81.50;99668.03;4940100;29;20218;-81
2023/04/06 00:52:34;;;;;;;6.60;4.20;;;;;;;-1.63;80.38;99663.47;4924042;29;20237;-81
2023/04/06 00:55:02;;;;;;;5.30;4.10;;;;;;;-1.61;79.86;99665.94;4940796;29;20285;-81
2023/04/06 00:57:29;;;;;;;6.27;4.10;;;;;;;-1.72;80.04;99671.34;4935982;29;20225;-81
2023/04/06 00:59:57;;;;;;;4.97;4.17;;;;;;;-1.85;80.21;99669.03;4909368;29;20292;-81
2023/04/06 01:02:25;;;;;;;7.87;4.23;;;;;;;-1.82;80.25;99674.03;4940457;29;20273;-81
2023/04/06 01:04:53;;;;;;;6.33;4.73;;;;;;;-1.88;80.39;99666.69;4965673;28;20241;-82
2023/04/06 01:07:26;;;;;;;6.10;4.50;;;;;;;-1.95;80.38;99665.56;4951047;28;20193;-82
2023/04/06 01:10:10;;;;;;;6.03;4.57;;;;;;;-1.93;80.66;99667.09;4955225;29;20205;-82
2023/04/06 01:12:38;;;;;;;6.33;4.43;;;;;;;-1.93;80.63;99658.41;4950484;29;20208;-81
2023/04/06 01:15:12;;;;;;;5.03;4.37;;;;;;;-1.89;81.14;99667.66;4945418;29;20199;-81
2023/04/06 01:17:42;;;;;;;6.90;4.13;;;;;;;-1.92;81.85;99662.69;4959563;29;20201;-81
2023/04/06 01:20:13;;;;;;;5.17;4.23;;;;;;;-2.01;82.44;99655.66;4928366;29;20215;-81
2023/04/06 01:22:40;;;;;;;4.47;4.07;;;;;;;-1.99;83.48;99662.41;4942477;29;20293;-80
2023/04/06 01:25:07;;;;;;;5.23;4.50;;;;;;;-2.01;84.21;99661.72;4959697;29;20295;-81
2023/04/06 01:27:57;;;;;;;8.70;5.53;;;;;;;-1.99;84.57;99657.16;4955224;29;20205;-81
2023/04/06 01:30:42;;;;;;;5.50;4.80;;;;;;;-2.02;84.65;99659.22;4963917;28;20209;-81
2023/04/06 01:33:28;;;;;;;6.03;4.90;;;;;;;-2.06;84.95;99657.84;4945907;29;20209;-81
2023/04/06 01:36:00;;;;;;;5.30;4.23;;;;;;;-2.13;85.33;99654.13;4968426;28;20188;-82
2023/04/06 01:38:27;;;;;;;4.87;4.20;;;;;;;-2.16;85.14;99655.22;4952628;28;20268;-82
2023/04/06 01:40:54;;;;;;;5.37;4.30;;;;;;;-2.18;85.09;99657.16;4953530;29;20200;-81
2023/04/06 01:43:23;;;;;;;6.20;4.50;;;;;;;-2.14;84.97;99660.31;4949758;29;20583;-81
2023/04/06 01:46:03;;;;;;;4.57;4.17;;;;;;;-2.24;85.34;99650.66;4937413;29;20293;-81
2023/04/06 01:48:34;;;;;;;5.67;4.20;;;;;;;-2.26;85.20;99652.59;4939317;29;20282;-81
2023/04/06 01:51:09;;;;;;;5.80;4.57;;;;;;;-2.27;85.67;99648.31;4955096;29;20200;-82
2023/04/06 01:53:44;;;;;;;5.20;4.03;;;;;;;-2.24;85.77;99650.66;4970554;28;20208;-82
2023/04/06 01:56:11;;;;;;;4.60;4.20;;;;;;;-2.23;85.81;99659.34;4962254;29;20192;-81
2023/04/06 01:58:45;;;;;;;5.60;4.53;;;;;;;-2.27;86.05;99653.56;4969114;28;20205;-82
2023/04/06 02:01:14;;;;;;;5.60;4.47;;;;;;;-2.22;86.64;99648.72;4971910;28;20286;-82
2023/04/06 02:03:52;;;;;;;5.77;4.83;;;;;;;-2.30;86.65;99659.09;4952793;29;20312;-81
2023/04/06 02:06:20;;;;;;;5.20;4.80;;;;;;;-2.29;86.90;99642.34;4957508;29;20225;-82
2023/04/06 02:08:48;;;;;;;5.83;5.27;;;;;;;-2.33;87.32;99651.47;4956595;29;20228;-81
2023/04/06 02:11:14;;;;;;;5.43;4.70;;;;;;;-2.40;88.48;99649.56;4967479;28;20199;-82
2023/04/06 02:13:52;;;;;;;6.63;4.93;;;;;;;-2.35;88.78;99653.44;4953846;29;20199;-83
2023/04/06 02:16:21;;;;;;;5.30;4.80;;;;;;;-2.28;89.00;99648.44;4937653;29;20208;-81
2023/04/06 02:18:50;;;;;;;5.20;4.53;;;;;;;-2.32;89.04;99649.69;4960314;28;20216;-82
2023/04/06 02:21:19;;;;;;;5.63;4.80;;;;;;;-2.40;89.37;99644.31;4955478;29;20193;-83
2023/04/06 02:23:51;;;;;;;5.53;4.53;;;;;;;-2.39;89.90;99638.94;4973821;29;20215;-82
2023/04/06 02:26:18;;;;;;;5.47;4.70;;;;;;;-2.42;90.18;99643.59;4958225;29;20216;-82
2023/04/06 02:28:46;;;;;;;6.80;4.83;;;;;;;-2.49;90.07;99632.84;4958017;29;20213;-82
2023/04/06 02:31:15;;;;;;;6.03;4.87;;;;;;;-2.47;90.43;99630.88;4973158;29;20195;-83
2023/04/06 02:33:47;;;;;;;5.50;5.00;;;;;;;-2.47;90.49;99630.09;4942803;29;20220;-82
2023/04/06 02:36:15;;;;;;;5.37;4.70;;;;;;;-2.43;90.30;99640.19;4970480;29;20223;-82
2023/04/06 02:38:42;;;;;;;5.90;4.37;;;;;;;-2.42;90.14;99631.31;4946795;29;20189;-81
2023/04/06 02:41:08;;;;;;;5.83;4.73;;;;;;;-2.44;90.21;99635.88;4968678;28;20196;-81
2023/04/06 02:43:36;;;;;;;5.00;4.47;;;;;;;-2.46;91.07;99640.44;4963921;29;20201;-81
2023/04/06 02:46:10;;;;;;;5.57;4.57;;;;;;;-2.48;90.89;99633.66;4949911;29;20260;-81
2023/04/06 02:48:38;;;;;;;6.33;4.93;;;;;;;-2.49;91.22;99648.59;4967043;29;20193;-82
2023/04/06 02:51:06;;;;;;;5.53;4.60;;;;;;;-2.50;91.22;99644.28;4966683;29;20252;-82
2023/04/06 02:53:33;;;;;;;7.07;4.60;;;;;;;-2.45;91.38;99634.22;4950769;29;20235;-82
2023/04/06 02:56:00;;;;;;;6.13;4.13;;;;;;;-2.48;91.57;99634.50;4944217;29;20202;-81
2023/04/06 02:58:36;;;;;;;6.83;4.63;;;;;;;-2.44;91.48;99638.50;4965499;29;20244;-81
2023/04/06 03:01:03;;;;;;;4.90;4.23;;;;;;;-2.47;91.62;99632.72;4936960;28;20207;-81
2023/04/06 03:03:30;;;;;;;6.00;4.80;;;;;;;-2.46;91.61;99640.44;4949594;29;20233;-81
2023/04/06 03:05:59;;;;;;;5.00;4.50;;;;;;;-2.52;91.75;99638.34;4949163;29;20224;-82
2023/04/06 03:08:29;;;;;;;4.77;4.17;;;;;;;-2.48;92.07;99633.66;4949193;29;20201;-81
2023/04/06 03:10:56;;;;;;;6.27;4.50;;;;;;;-2.45;92.13;99626.34;4966219;29;20256;-81
2023/04/06 03:13:30;;;;;;;4.80;4.10;;;;;;;-2.48;92.19;99631.03;4950998;29;20228;-82
2023/04/06 03:15:58;;;;;;;6.83;4.37;;;;;;;-2.50;92.29;99630.34;4968955;28;20191;-82
2023/04/06 03:18:26;;;;;;;5.33;4.83;;;;;;;-2.57;92.78;99637.13;4983228;28;20223;-81
2023/04/06 03:20:55;;;;;;;5.37;4.87;;;;;;;-2.51;92.39;99636.53;4949968;29;20185;-81
2023/04/06 03:23:27;;;;;;;6.77;4.80;;;;;;;-2.58;92.65;99638.91;4964253;29;20192;-81
2023/04/06 03:25:57;;;;;;;5.40;4.90;;;;;;;-2.51;92.61;99640.00;4951988;28;20234;-81
2023/04/06 03:28:25;;;;;;;5.20;4.70;;;;;;;-2.47;92.66;99645.84;4951518;28;20215;-82
2023/04/06 03:30:57;;;;;;;6.33;5.03;;;;;;;-2.49;92.79;99643.34;4964939;29;20205;-81
2023/04/06 03:33:42;;;;;;;5.50;4.97;;;;;;;-2.49;92.83;99639.88;4964670;29;20260;-81
2023/04/06 03:36:15;;;;;;;6.03;4.83;;;;;;;-2.53;93.11;99646.38;4947616;29;20232;-81
2023/04/06 03:38:43;;;;;;;4.97;4.37;;;;;;;-2.54;93.16;99647.31;4964499;29;20212;-81
2023/04/06 03:41:12;;;;;;;5.60;5.07;;;;;;;-2.51;93.41;99639.16;4965068;29;20628;-81
2023/04/06 03:43:43;;;;;;;5.97;5.37;;;;;;;-2.50;93.32;99648.72;4965947;29;20209;-81
2023/04/06 03:46:10;;;;;;;5.77;4.60;;;;;;;-2.52;92.98;99648.03;4959972;29;20287;-82
2023/04/06 03:48:36;;;;;;;5.43;4.70;;;;;;;-2.56;93.35;99644.00;4958438;29;20256;-81
2023/04/06 03:51:05;;;;;;;5.23;4.37;;;;;;;-2.57;93.15;99650.22;4964782;29;20231;-81
2023/04/06 03:53:32;;;;;;;7.00;4.60;;;;;;;-2.59;93.02;99649.53;4972678;28;20279;-81
2023/04/06 03:55:58;;;;;;;5.70;4.70;;;;;;;-2.56;92.87;99651.88;4981839;28;20197;-82
2023/04/06 03:58:27;;;;;;;6.80;4.70;;;;;;;-2.59;92.88;99658.22;4947701;29;20231;-79
2023/04/06 04:00:53;;;;;;;5.13;4.63;;;;;;;-2.53;92.77;99659.47;4948733;28;20687;-81
2023/04/06 04:03:21;;;;;;;6.27;4.50;;;;;;;-2.55;92.72;99659.59;4977158;28;20783;-82
2023/04/06 04:05:48;;;;;;;6.53;4.40;;;;;;;-2.57;92.89;99658.09;4947457;29;20217;-81
2023/04/06 04:08:15;;;;;;;6.10;4.77;;;;;;;-2.54;93.31;99660.44;4968539;28;20196;-81
2023/04/06 04:10:42;;;;;;;5.93;4.70;;;;;;;-2.54;92.84;99657.81;4966876;28;20224;-81
2023/04/06 04:13:08;;;;;;;5.10;4.60;;;;;;;-2.55;92.95;99657.00;4955020;29;20197;-81
2023/04/06 04:15:35;;;;;;;5.97;4.50;;;;;;;-2.55;93.22;99656.16;4963115;29;20261;-82
2023/04/06 04:18:02;;;;;;;6.77;5.17;;;;;;;-2.54;93.40;99653.41;4956245;29;20212;-81
2023/04/06 04:20:29;;;;;;;8.07;6.63;;;;;;;-2.57;93.77;99658.09;4946495;29;20205;-81
2023/04/06 04:22:57;;;;;;;9.50;5.90;;;;;;;-2.54;93.60;99656.03;4930295;29;20205;-81
2023/04/06 04:25:23;;;;;;;6.63;5.63;;;;;;;-2.58;94.28;99662.50;4951774;28;20244;-82
2023/04/06 04:27:50;;;;;;;7.57;5.47;;;;;;;-2.53;94.14;99665.56;4967633;28;20699;-81
2023/04/06 04:30:19;;;;;;;6.60;5.07;;;;;;;-2.44;93.71;99656.88;4961867;29;20205;-81
2023/04/06 04:32:46;;;;;;;5.83;5.23;;;;;;;-2.48;93.28;99663.38;4947865;29;20283;-81
2023/04/06 04:35:16;;;;;;;5.70;5.03;;;;;;;-2.49;93.33;99664.31;4947558;29;20299;-81
2023/04/06 04:37:43;;;;;;;6.27;4.97;;;;;;;-2.46;93.06;99663.22;4954329;29;20233;-81
2023/04/06 04:40:11;;;;;;;6.53;4.80;;;;;;;-2.30;91.54;99666.13;4947084;29;20200;-81
2023/04/06 04:42:50;;;;;;;6.00;4.60;;;;;;;-2.33;91.26;99669.00;4944600;29;20637;-82
2023/04/06 04:45:27;;;;;;;6.53;5.10;;;;;;;-2.37;91.96;99663.22;4959426;29;20232;-81
2023/04/06 04:47:55;;;;;;;4.83;4.43;;;;;;;-2.36;92.52;99669.31;4965303;28;20280;-82
2023/04/06 04:50:24;;;;;;;6.03;4.87;;;;;;;-2.38;92.98;99663.38;4956135;29;20243;-81
2023/04/06 04:52:55;;;;;;;6.33;4.47;;;;;;;-2.29;92.94;99657.31;4943801;29;20181;-81
2023/04/06 04:55:24;;;;;;;5.60;4.97;;;;;;;-2.24;92.80;99661.16;4941489;29;20232;-81
2023/04/06 04:57:54;;;;;;;6.17;5.00;;;;;;;-2.21;92.63;99657.44;4960624;28;20225;-81
2023/04/06 05:00:26;;;;;;;6.03;5.03;;;;;;;-2.07;91.64;99662.28;4953570;29;20193;-81
2023/04/06 05:02:56;;;;;;;8.00;5.50;;;;;;;-2.07;91.74;99659.66;4940814;29;20884;-81
2023/04/06 05:05:26;;;;;;;8.00;5.10;;;;;;;-2.01;91.68;99663.53;4941597;29;20213;-81
2023/04/06 05:07:53;;;;;;;7.17;4.93;;;;;;;-1.96;92.14;99651.63;4941983;29;20222;-81
2023/04/06 05:10:30;;;;;;;6.83;5.20;;;;;;;-1.86;91.97;99665.56;4929174;29;20205;-82
2023/04/06 05:13:02;;;;;;;6.63;5.80;;;;;;;-1.71;91.29;99660.72;4941352;29;20201;-81
2023/04/06 05:15:29;;;;;;;6.73;5.53;;;;;;;-1.62;90.67;99657.25;4944360;29;20278;-82
2023/04/06 05:18:02;;;;;;;9.33;6.00;;;;;;;-1.53;90.68;99661.66;4929652;29;20244;-81
2023/04/06 05:20:32;;;;;;;6.83;5.27;;;;;;;-1.41;91.17;99660.53;4945637;29;20197;-81
2023/04/06 05:22:59;;;;;;;6.60;5.47;;;;;;;-1.28;91.21;99664.63;4945258;29;20264;-81
2023/04/06 05:25:27;;;;;;;6.07;5.07;;;;;;;-1.12;91.33;99668.28;4942161;29;20213;-81
2023/04/06 05:27:58;;;;;;;7.80;5.00;;;;;;;-1.07;91.35;99659.97;4913620;29;20589;-81
2023/04/06 05:30:31;;;;;;;7.03;6.03;;;;;;;-0.92;91.07;99661.16;4932390;29;20660;-81
2023/04/06 05:32:58;;;;;;;8.83;6.60;;;;;;;-0.73;90.71;99660.22;4943179;29;20207;-81
2023/04/06 05:35:30;;;;;;;7.80;6.60;;;;;;;-0.60;90.01;99660.69;4939699;29;20188;-80
2023/04/06 05:38:02;;;;;;;11.07;6.93;;;;;;;-0.52;89.62;99660.81;4945088;29;20236;-82
2023/04/06 05:40:28;;;;;;;8.43;7.30;;;;;;;-0.42;89.07;99663.38;4933682;29;20209;-82
2023/04/06 05:42:55;;;;;;;12.03;7.83;;;;;;;-0.25;88.66;99652.84;4942668;29;20197;-82
2023/04/06 05:45:22;;;;;;;11.70;7.20;;;;;;;-0.04;87.93;99661.28;4945599;29;20208;-81
2023/04/06 05:47:53;;;;;;;10.27;7.57;;;;;;;0.20;87.19;99663.28;4945145;29;20205;-82
2023/04/06 05:50:27;;;;;;;11.87;7.73;;;;;;;0.38;85.86;99650.91;4938326;29;20205;-81
2023/04/06 05:52:55;;;;;;;8.67;6.53;;;;;;;0.60;84.64;99661.94;4943453;29;20224;-81
2023/04/06 05:55:25;;;;;;;8.40;5.80;;;;;;;0.80;83.22;99660.72;4936109;29;20243;-80
2023/04/06 05:58:04;;;;;;;8.57;6.07;;;;;;;0.99;82.62;99662.31;4942234;29;20224;-81
2023/04/06 06:00:31;;;;;;;6.67;5.47;;;;;;;1.18;81.75;99657.63;4944115;29;20208;-81
2023/04/06 06:03:04;;;;;;;7.87;6.00;;;;;;;1.30;81.00;99666.91;4969829;29;20197;-81
2023/04/06 06:05:31;;;;;;;7.07;5.70;;;;;;;1.45;80.71;99658.34;4934703;29;20232;-82
2023/04/06 06:08:05;;;;;;;6.07;5.43;;;;;;;1.68;80.76;99656.78;4949675;29;20234;-82
2023/04/06 06:10:32;;;;;;;8.00;5.97;;;;;;;1.92;80.03;99669.19;4948953;29;20186;-82
2023/04/06 06:12:59;;;;;;;7.30;5.80;;;;;;;2.11;79.67;99656.50;4949969;29;20205;-82
2023/04/06 06:15:27;;;;;;;6.00;5.40;;;;;;;2.42;78.62;99661.13;4939222;29;20205;-82
2023/04/06 06:17:53;;;;;;;8.83;5.90;;;;;;;2.65;77.95;99651.50;4950930;29;20224;-82
2023/04/06 06:20:20;;;;;;;9.13;6.27;;;;;;;2.96;77.22;99662.16;4931425;29;20203;-82
2023/04/06 06:22:47;;;;;;;9.03;5.20;;;;;;;3.28;75.39;99655.91;4964954;28;20185;-82
2023/04/06 06:25:19;;;;;;;5.27;4.77;;;;;;;3.45;74.88;99650.38;4932157;29;20205;-82
2023/04/06 06:27:47;;;;;;;6.13;5.00;;;;;;;3.69;73.32;99649.41;4943099;29;20213;-82
2023/04/06 06:30:16;;;;;;;5.23;4.47;;;;;;;3.98;72.24;99649.56;4940316;29;20189;-82
2023/04/06 06:32:44;;;;;;;6.40;5.37;;;;;;;4.15;71.09;99646.78;4948885;29;20308;-82
2023/04/06 06:35:11;;;;;;;6.80;5.53;;;;;;;4.38;69.53;99651.06;4932337;29;20198;-82
2023/04/06 06:37:38;;;;;;;8.40;4.53;;;;;;;4.36;68.89;99649.59;4914193;29;20210;-81
2023/04/06 06:40:12;;;;;;;5.30;4.80;;;;;;;4.44;68.11;99647.69;4963748;29;20190;-81
2023/04/06 06:42:43;;;;;;;5.50;4.53;;;;;;;4.63;68.29;99635.72;4910687;29;20223;-82
2023/04/06 06:45:34;;;;;;;5.83;4.80;;;;;;;4.68;66.89;99636.00;4956008;29;20216;-85
2023/04/06 06:48:13;;;;;;;5.67;4.70;;;;;;;4.78;66.62;99647.19;4955659;29;20221;-83
2023/04/06 06:50:41;;;;;;;6.30;4.93;;;;;;;4.90;66.29;99642.25;4945861;29;20197;-83
2023/04/06 06:53:08;;;;;;;5.43;4.83;;;;;;;4.98;65.46;99650.13;4922351;29;20193;-80
2023/04/06 06:55:35;;;;;;;6.47;4.50;;;;;;;4.97;65.73;99648.47;4938954;29;20200;-82
2023/04/06 06:58:05;;;;;;;6.83;4.33;;;;;;;5.05;66.07;99645.72;4924846;29;20250;-82
2023/04/06 07:00:32;;;;;;;5.50;4.90;;;;;;;5.07;66.11;99654.34;4945142;29;20224;-81
2023/04/06 07:03:00;;;;;;;6.87;5.13;;;;;;;5.03;66.17;99652.25;4957799;29;20194;-82
2023/04/06 07:05:27;;;;;;;8.63;4.87;;;;;;;5.18;65.67;99653.06;4975819;28;20212;-81
2023/04/06 07:07:57;;;;;;;5.57;4.90;;;;;;;5.29;65.17;99672.00;4983050;28;20193;-82
2023/04/06 07:10:26;;;;;;;9.53;5.10;;;;;;;5.41;64.42;99660.91;4967881;28;20219;-82
2023/04/06 07:12:53;;;;;;;5.50;5.00;;;;;;;5.32;64.42;99658.34;4951788;29;20197;-81
2023/04/06 07:15:20;;;;;;;5.90;4.90;;;;;;;5.46;64.86;99658.53;4974165;29;20196;-83
2023/04/06 07:17:47;;;;;;;7.63;5.47;;;;;;;5.59;64.63;99661.34;4940571;28;20253;-81
2023/04/06 07:20:15;;;;;;;6.47;4.43;;;;;;;5.80;64.03;99665.84;4953225;28;20566;-79
2023/04/06 07:22:43;;;;;;;6.60;5.17;;;;;;;5.69;64.08;99665.31;4960519;28;20221;-79
2023/04/06 07:25:10;;;;;;;5.30;4.67;;;;;;;5.60;63.61;99663.00;4946348;28;20193;-79
2023/04/06 07:27:36;;;;;;;6.30;4.60;;;;;;;5.66;63.72;99663.06;4958856;28;20295;-79
2023/04/06 07:30:04;;;;;;;6.00;4.80;;;;;;;5.68;63.29;99661.03;4953764;29;20686;-80
2023/04/06 07:32:31;;;;;;;5.23;4.33;;;;;;;5.74;63.27;99652.28;4956210;29;20243;-78
2023/04/06 07:34:58;;;;;;;5.53;4.13;;;;;;;5.81;62.77;99657.69;4955558;28;20208;-79
2023/04/06 07:37:25;;;;;;;9.37;4.87;;;;;;;5.78;62.85;99651.94;4956070;28;20660;-79
2023/04/06 07:39:52;;;;;;;5.30;4.43;;;;;;;5.76;63.30;99652.13;4954510;28;20570;-79
2023/04/06 07:42:18;;;;;;;5.60;4.70;;;;;;;6.16;62.84;99653.38;4938898;29;20207;-79
2023/04/06 07:44:45;;;;;;;4.83;4.30;;;;;;;6.34;62.03;99650.28;4956953;28;20814;-79
2023/04/06 07:47:12;;;;;;;6.13;4.73;;;;;;;6.52;61.72;99648.78;4939271;29;20308;-81
2023/04/06 07:49:39;;;;;;;4.83;4.33;;;;;;;6.58;61.57;99637.34;4947142;29;20185;-81
2023/04/06 07:52:05;;;;;;;7.63;4.80;;;;;;;6.74;62.29;99638.06;4943789;29;20201;-81
2023/04/06 07:54:32;;;;;;;6.07;4.30;;;;;;;6.80;60.70;99645.28;4941496;29;20217;-81
2023/04/06 07:56:59;;;;;;;4.70;4.30;;;;;;;6.79;60.67;99635.66;4972297;28;20209;-80
2023/04/06 07:59:26;;;;;;;6.00;4.70;;;;;;;6.75;60.08;99634.41;4962688;28;20185;-81
2023/04/06 08:01:52;;;;;;;4.57;3.67;;;;;;;6.81;59.88;99636.28;4963018;29;20248;-80
2023/04/06 08:04:21;;;;;;;4.53;3.80;;;;;;;6.97;60.72;99635.97;4962881;29;20228;-82
2023/04/06 08:06:48;;;;;;;6.67;4.20;;;;;;;6.87;58.96;99635.50;4962570;29;20224;-82
2023/04/06 08:09:15;;;;;;;6.20;3.80;;;;;;;7.22;59.81;99633.66;4945917;29;20268;-81
2023/04/06 08:11:41;;;;;;;4.43;3.80;;;;;;;7.23;58.50;99638.75;4969424;28;20203;-81
2023/04/06 08:14:09;;;;;;;4.47;3.67;;;;;;;7.02;58.01;99637.03;4963033;28;20193;-81
2023/04/06 08:16:36;;;;;;;4.10;3.70;;;;;;;7.03;58.12;99622.69;4946022;29;20284;-81
2023/04/06 08:19:04;;;;;;;4.20;3.80;;;;;;;7.01;59.15;99632.72;4962102;29;20197;-81
2023/04/06 08:21:30;;;;;;;4.90;3.60;;;;;;;7.27;57.99;99628.56;4970514;28;20280;-81
2023/04/06 08:23:57;;;;;;;6.23;3.47;;;;;;;7.42;57.51;99635.38;4948277;28;20283;-81
2023/04/06 08:26:25;;;;;;;4.40;3.60;;;;;;;7.34;58.03;99621.41;4963905;28;20698;-81
2023/04/06 08:28:51;;;;;;;5.87;4.23;;;;;;;7.02;58.24;99626.38;4956306;29;20207;-81
2023/04/06 08:31:18;;;;;;;4.80;3.57;;;;;;;7.44;57.98;99624.50;4961910;29;20240;-81
2023/04/06 08:33:45;;;;;;;5.93;3.73;;;;;;;7.35;57.65;99623.03;4961891;29;20216;-81
2023/04/06 08:36:13;;;;;;;5.30;3.50;;;;;;;7.57;56.91;99624.56;4966114;28;20660;-81
2023/04/06 08:38:41;;;;;;;4.57;3.20;;;;;;;7.58;57.03;99634.22;4965705;28;20193;-81
2023/04/06 08:41:09;;;;;;;5.20;3.43;;;;;;;7.54;56.75;99627.63;4961253;29;20193;-81
2023/04/06 08:43:54;;;;;;;5.20;3.63;;;;;;;7.58;57.36;99626.22;4961612;29;20719;-81
2023/04/06 08:46:21;;;;;;;4.93;4.00;;;;;;;7.63;55.96;99617.59;4961308;29;20205;-81
2023/04/06 08:48:49;;;;;;;4.60;3.70;;;;;;;7.73;55.26;99615.38;4968585;28;20279;-81
2023/04/06 08:51:17;;;;;;;3.80;3.10;;;;;;;7.94;55.51;99613.38;4964012;28;20292;-81
2023/04/06 08:53:44;;;;;;;3.70;3.00;;;;;;;7.97;55.65;99601.47;4941108;29;20190;-81
2023/04/06 08:56:11;;;;;;;4.37;2.90;;;;;;;8.04;55.59;99612.97;4958595;28;20203;-82
2023/04/06 08:58:39;;;;;;;4.80;3.00;;;;;;;7.89;55.33;99609.66;4960571;29;20260;-81
2023/04/06 09:01:10;;;;;;;3.20;2.80;;;;;;;7.75;54.28;99603.47;4960229;29;20723;-81
2023/04/06 09:03:39;;;;;;;4.20;2.40;;;;;;;7.93;54.08;99603.72;4954241;29;20237;-81
2023/04/06 09:06:07;;;;;;;5.57;2.73;;;;;;;7.74;54.05;99604.53;4960612;28;20220;-81
2023/04/06 09:08:35;;;;;;;3.13;2.80;;;;;;;7.58;53.99;99599.53;4945419;28;20227;-80
2023/04/06 09:11:04;;;;;;;3.43;2.63;;;;;;;7.79;53.01;99596.72;4961974;28;20204;-81
2023/04/06 09:13:31;;;;;;;4.60;3.23;;;;;;;7.51;54.30;99601.38;4943567;29;20621;-81
2023/04/06 09:16:02;;;;;;;5.20;2.90;;;;;;;7.73;53.98;99594.88;4960746;29;20189;-81
2023/04/06 09:18:33;;;;;;;2.97;2.77;;;;;;;7.82;53.50;99591.00;4952529;28;20256;-81
2023/04/06 09:21:01;;;;;;;4.63;2.80;;;;;;;8.29;51.99;99586.50;4968507;28;20246;-81
2023/04/06 09:23:28;;;;;;;3.83;3.10;;;;;;;8.23;52.52;99581.97;4976541;28;20216;-81
2023/04/06 09:26:17;;;;;;;3.33;2.83;;;;;;;8.02;52.92;99585.69;4967046;28;20188;-82
2023/04/06 09:28:45;;;;;;;2.63;2.30;;;;;;;8.18;51.42;99581.78;4965907;28;20212;-81
2023/04/06 09:31:13;;;;;;;3.47;3.00;;;;;;;8.15;51.92;99566.19;4959154;29;20296;-81
2023/04/06 09:33:45;;;;;;;4.83;2.90;;;;;;;8.00;52.08;99571.72;4959829;29;20232;-81
2023/04/06 09:36:13;;;;;;;3.07;2.67;;;;;;;8.39;51.14;99570.94;4959790;29;20200;-81
2023/04/06 09:38:56;;;;;;;3.97;3.00;;;;;;;8.53;52.19;99563.72;4943342;29;20249;-81
2023/04/06 09:41:34;;;;;;;5.13;3.20;;;;;;;8.65;50.90;99559.38;4961493;28;20192;-81
2023/04/06 09:44:08;;;;;;;3.27;2.97;;;;;;;8.56;50.83;99558.78;4978809;28;20643;-81
2023/04/06 09:46:42;;;;;;;3.93;3.07;;;;;;;8.47;51.28;99564.56;4950261;28;21227;-81
2023/04/06 09:49:27;;;;;;;4.03;3.03;;;;;;;8.72;50.73;99558.34;4963223;28;20221;-81
2023/04/06 09:51:58;;;;;;;4.10;3.03;;;;;;;9.19;50.53;99565.16;4969660;28;20195;-83
2023/04/06 09:54:28;;;;;;;4.23;3.27;;;;;;;9.19;50.55;99557.13;4951996;28;20731;-81
2023/04/06 09:57:11;;;;;;;3.37;3.07;;;;;;;9.18;49.85;99547.50;4967230;28;20224;-81
2023/04/06 09:59:47;;;;;;;3.87;3.47;;;;;;;9.36;50.14;99541.44;4959000;28;20197;-81
2023/04/06 10:02:53;;;;;;;4.17;3.40;;;;;;;9.64;48.90;99549.94;4972254;28;20235;-81
2023/04/06 10:05:35;;;;;;;3.60;3.10;;;;;;;9.28;47.75;99537.16;4964377;28;20220;-81
2023/04/06 10:08:07;;;;;;;3.70;3.13;;;;;;;9.82;48.03;99538.50;4958952;28;20209;-81
2023/04/06 10:10:34;;;;;;;4.57;3.40;;;;;;;9.93;47.67;99550.34;4942580;29;20244;-81
2023/04/06 10:13:00;;;;;;;3.80;3.17;;;;;;;9.75;47.65;99528.88;4961705;28;20208;-81
2023/04/06 10:15:30;;;;;;;4.30;3.20;;;;;;;9.88;47.96;99532.28;4958819;29;20221;-81
2023/04/06 10:17:59;;;;;;;3.83;3.30;;;;;;;10.09;47.81;99534.56;4961422;28;20217;-81
2023/04/06 10:20:41;;;;;;;4.27;3.30;;;;;;;9.99;47.86;99528.06;4975379;28;20194;-82
2023/04/06 10:23:15;;;;;;;3.70;3.23;;;;;;;10.08;47.87;99522.22;4961923;28;20248;-81
2023/04/06 10:25:54;;;;;;;3.97;3.57;;;;;;;10.36;48.40;99519.09;4942572;29;20189;-80
2023/04/06 10:28:21;;;;;;;5.37;3.60;;;;;;;10.25;47.75;99511.81;4951503;28;20209;-81
2023/04/06 10:30:48;;;;;;;5.43;3.77;;;;;;;10.29;47.58;99504.16;4969534;28;20275;-81
2023/04/06 10:33:16;;;;;;;3.17;2.87;;;;;;;10.27;46.90;99499.00;4967736;28;20219;-81
2023/04/06 10:35:44;;;;;;;4.67;2.80;;;;;;;9.71;45.74;99512.41;4971131;28;20214;-81
2023/04/06 10:38:14;;;;;;;3.10;2.60;;;;;;;9.95;44.32;99495.56;4963416;28;20206;-81
2023/04/06 10:40:46;;;;;;;2.80;2.40;;;;;;;9.91;44.66;99493.53;4965816;28;20276;-81
2023/04/06 10:43:20;;;;;;;5.47;3.00;;;;;;;9.89;45.04;99492.97;4964748;28;20201;-81
2023/04/06 10:45:56;;;;;;;2.17;1.97;;;;;;;9.78;44.66;99497.16;4977326;28;20204;-81
2023/04/06 10:48:25;;;;;;;3.53;2.23;;;;;;;9.85;44.19;99487.19;4962614;29;20255;-81
2023/04/06 10:50:52;;;;;;;3.37;2.20;;;;;;;10.16;43.69;99494.41;4969910;28;20196;-81
2023/04/06 10:53:26;;;;;;;3.03;2.43;;;;;;;10.42;43.68;99482.59;4975054;28;20284;-81
2023/04/06 10:55:56;;;;;;;2.47;2.27;;;;;;;10.12;43.66;99488.59;4970260;28;20596;-81
2023/04/06 10:58:26;;;;;;;3.80;2.77;;;;;;;10.72;44.53;99486.19;4940293;28;20283;-81
2023/04/06 11:00:54;;;;;;;2.63;2.17;;;;;;;10.59;42.61;99491.69;4947536;28;20263;-81
2023/04/06 11:03:21;;;;;;;2.50;2.30;;;;;;;10.24;42.83;99478.03;4955729;29;20243;-81
2023/04/06 11:05:50;;;;;;;2.93;2.50;;;;;;;9.92;43.36;99477.28;4965648;28;20648;-81
2023/04/06 11:08:26;;;;;;;2.73;2.47;;;;;;;10.48;42.70;99474.50;4967264;28;20210;-81
2023/04/06 11:11:08;;;;;;;3.90;2.47;;;;;;;10.53;42.59;99468.47;4949550;28;20200;-81
2023/04/06 11:13:40;;;;;;;2.80;2.50;;;;;;;10.72;42.24;99463.94;4936207;29;20196;-80
2023/04/06 11:16:11;;;;;;;5.27;2.30;;;;;;;10.77;41.82;99467.59;4961714;29;20205;-81
2023/04/06 11:18:46;;;;;;;4.60;2.70;;;;;;;11.31;41.12;99455.91;4961311;29;20648;-81
2023/04/06 11:21:13;;;;;;;2.93;2.63;;;;;;;11.04;41.26;99455.47;4967520;28;20199;-82
2023/04/06 11:23:40;;;;;;;2.70;2.20;;;;;;;10.75;40.76;99450.91;4969395;28;20226;-81
2023/04/06 11:26:14;;;;;;;2.40;2.20;;;;;;;11.25;41.13;99439.91;4940465;29;20578;-81
2023/04/06 11:28:44;;;;;;;3.23;2.03;;;;;;;11.80;40.64;99437.88;4961669;29;20240;-81
2023/04/06 11:31:11;;;;;;;2.40;2.20;;;;;;;11.40;40.15;99441.13;4968955;28;20211;-80
2023/04/06 11:33:38;;;;;;;3.13;2.20;;;;;;;11.56;40.49;99444.22;4971645;28;20223;-81
2023/04/06 11:36:06;;;;;;;2.63;2.20;;;;;;;11.25;40.15;99435.38;4961258;29;20283;-81
2023/04/06 11:38:34;;;;;;;2.83;2.37;;;;;;;11.00;39.59;99434.72;4970252;28;20197;-81
2023/04/06 11:41:01;;;;;;;2.93;2.30;;;;;;;11.30;39.86;99415.91;4953588;29;20216;-81
2023/04/06 11:43:30;;;;;;;2.60;2.40;;;;;;;11.33;40.35;99426.19;4967705;28;20266;-81
2023/04/06 11:46:04;;;;;;;2.87;2.40;;;;;;;10.89;40.35;99425.56;4973446;28;20219;-81
2023/04/06 11:48:45;;;;;;;2.47;2.10;;;;;;;11.10;40.60;99413.53;4960808;29;20276;-81